Avoca, Pennsylvania
Current Conditions -  °F | °C
As of 10:54 PM on Wednesday 17 Dec 2014 (Local Time) from KAVP Reporting Station
Overcast Overcast  
Wind Chill: 29°   Ceiling: 3300
Heat Index: 36°   Visibility: 10mi
Dew Point: 25°   Wind: 9mph
Humidity: 64%   Direction: 240°WSW
Pressure: 29.92"   Gusts: NA
Location:  41.3331°N, 75.7365°W
Report Text: KAVP 180354Z 24008KT 10SM OVC033 02/M04 A2992 RMK AO2 SLP134 T00221039
Loading
Personal Weather Stations






























Interactive Weather Map New forecast layout! Learn more

10-Day Weather Forecast

Advertisements
Track Severe Weather on mobile